sensor_id;sensor_type;location;lat;lon;timestamp;P1;durP1;ratioP1;P2;durP2;ratioP2
38853;SDS011;24606;51.992;4.198;2023-07-16T00:02:59;8.40;;;2.55;;
38853;SDS011;24606;51.992;4.198;2023-07-16T00:08:01;12.30;;;3.67;;
38853;SDS011;24606;51.992;4.198;2023-07-16T00:18:06;10.05;;;2.95;;
38853;SDS011;24606;51.992;4.198;2023-07-16T00:23:08;7.97;;;2.85;;
38853;SDS011;24606;51.992;4.198;2023-07-16T00:28:11;11.15;;;3.35;;
38853;SDS011;24606;51.992;4.198;2023-07-16T00:33:13;10.18;;;3.65;;
38853;SDS011;24606;51.992;4.198;2023-07-16T00:38:16;3.58;;;2.40;;
38853;SDS011;24606;51.992;4.198;2023-07-16T00:43:20;6.88;;;2.72;;
38853;SDS011;24606;51.992;4.198;2023-07-16T00:48:22;8.43;;;3.35;;
38853;SDS011;24606;51.992;4.198;2023-07-16T00:53:24;16.85;;;4.55;;
38853;SDS011;24606;51.992;4.198;2023-07-16T00:58:27;19.75;;;4.50;;
38853;SDS011;24606;51.992;4.198;2023-07-16T01:03:29;10.18;;;3.47;;
38853;SDS011;24606;51.992;4.198;2023-07-16T01:08:31;22.17;;;4.38;;
38853;SDS011;24606;51.992;4.198;2023-07-16T01:13:37;13.98;;;5.05;;
38853;SDS011;24606;51.992;4.198;2023-07-16T01:18:40;13.60;;;3.63;;
38853;SDS011;24606;51.992;4.198;2023-07-16T01:23:48;12.20;;;3.85;;
38853;SDS011;24606;51.992;4.198;2023-07-16T01:29:16;13.52;;;3.92;;
38853;SDS011;24606;51.992;4.198;2023-07-16T01:34:28;13.50;;;4.40;;
38853;SDS011;24606;51.992;4.198;2023-07-16T01:39:33;10.05;;;4.07;;
38853;SDS011;24606;51.992;4.198;2023-07-16T01:44:36;12.00;;;4.82;;
38853;SDS011;24606;51.992;4.198;2023-07-16T01:49:38;14.18;;;4.43;;
38853;SDS011;24606;51.992;4.198;2023-07-16T01:54:41;10.55;;;4.50;;
38853;SDS011;24606;51.992;4.198;2023-07-16T01:59:45;14.15;;;4.15;;
38853;SDS011;24606;51.992;4.198;2023-07-16T02:04:47;22.73;;;4.70;;
38853;SDS011;24606;51.992;4.198;2023-07-16T02:09:49;8.77;;;3.78;;
38853;SDS011;24606;51.992;4.198;2023-07-16T02:14:52;10.95;;;3.90;;
38853;SDS011;24606;51.992;4.198;2023-07-16T02:19:54;11.90;;;5.30;;
38853;SDS011;24606;51.992;4.198;2023-07-16T02:29:59;7.97;;;3.70;;
38853;SDS011;24606;51.992;4.198;2023-07-16T02:35:01;8.93;;;3.63;;
38853;SDS011;24606;51.992;4.198;2023-07-16T02:40:03;11.68;;;4.63;;
38853;SDS011;24606;51.992;4.198;2023-07-16T02:45:09;14.48;;;5.13;;
38853;SDS011;24606;51.992;4.198;2023-07-16T02:50:11;10.23;;;4.22;;
38853;SDS011;24606;51.992;4.198;2023-07-16T03:15:29;7.32;;;3.33;;
38853;SDS011;24606;51.992;4.198;2023-07-16T03:20:31;8.07;;;3.38;;
38853;SDS011;24606;51.992;4.198;2023-07-16T03:25:33;5.65;;;2.83;;
38853;SDS011;24606;51.992;4.198;2023-07-16T03:30:36;14.63;;;4.55;;
38853;SDS011;24606;51.992;4.198;2023-07-16T03:35:38;9.65;;;4.10;;
38853;SDS011;24606;51.992;4.198;2023-07-16T03:40:41;16.30;;;5.28;;
38853;SDS011;24606;51.992;4.198;2023-07-16T03:45:45;9.48;;;3.40;;
38853;SDS011;24606;51.992;4.198;2023-07-16T03:50:47;13.35;;;4.72;;
38853;SDS011;24606;51.992;4.198;2023-07-16T04:00:52;15.30;;;3.83;;
38853;SDS011;24606;51.992;4.198;2023-07-16T04:06:00;8.13;;;3.67;;
38853;SDS011;24606;51.992;4.198;2023-07-16T04:11:03;8.25;;;3.75;;
38853;SDS011;24606;51.992;4.198;2023-07-16T04:16:07;9.75;;;4.60;;
38853;SDS011;24606;51.992;4.198;2023-07-16T04:21:09;8.40;;;4.15;;
38853;SDS011;24606;51.992;4.198;2023-07-16T04:26:11;11.23;;;4.63;;
38853;SDS011;24606;51.992;4.198;2023-07-16T04:31:14;13.23;;;5.35;;
38853;SDS011;24606;51.992;4.198;2023-07-16T04:36:16;7.25;;;3.70;;
38853;SDS011;24606;51.992;4.198;2023-07-16T04:41:18;17.45;;;4.65;;
38853;SDS011;24606;51.992;4.198;2023-07-16T04:46:21;12.38;;;4.35;;
38853;SDS011;24606;51.992;4.198;2023-07-16T04:51:23;9.35;;;3.83;;
38853;SDS011;24606;51.992;4.198;2023-07-16T04:56:25;8.85;;;4.55;;
38853;SDS011;24606;51.992;4.198;2023-07-16T05:01:28;12.35;;;3.85;;
38853;SDS011;24606;51.992;4.198;2023-07-16T05:06:30;10.18;;;4.03;;
38853;SDS011;24606;51.992;4.198;2023-07-16T05:11:32;8.05;;;3.67;;
38853;SDS011;24606;51.992;4.198;2023-07-16T05:16:35;8.50;;;3.65;;
38853;SDS011;24606;51.992;4.198;2023-07-16T05:21:36;8.00;;;3.95;;
38853;SDS011;24606;51.992;4.198;2023-07-16T05:26:38;6.80;;;3.67;;
38853;SDS011;24606;51.992;4.198;2023-07-16T05:31:41;8.90;;;3.75;;
38853;SDS011;24606;51.992;4.198;2023-07-16T05:36:43;11.68;;;5.35;;
38853;SDS011;24606;51.992;4.198;2023-07-16T05:41:46;16.58;;;4.78;;
38853;SDS011;24606;51.992;4.198;2023-07-16T05:46:49;14.63;;;4.60;;
38853;SDS011;24606;51.992;4.198;2023-07-16T05:51:51;11.73;;;5.97;;
38853;SDS011;24606;51.992;4.198;2023-07-16T05:56:54;7.40;;;4.15;;
38853;SDS011;24606;51.992;4.198;2023-07-16T06:01:57;3.85;;;2.10;;
38853;SDS011;24606;51.992;4.198;2023-07-16T06:06:59;8.90;;;4.18;;
38853;SDS011;24606;51.992;4.198;2023-07-16T06:12:01;15.40;;;5.53;;
38853;SDS011;24606;51.992;4.198;2023-07-16T06:17:04;12.13;;;4.13;;
38853;SDS011;24606;51.992;4.198;2023-07-16T06:22:06;11.30;;;5.22;;
38853;SDS011;24606;51.992;4.198;2023-07-16T06:27:09;13.63;;;4.00;;
38853;SDS011;24606;51.992;4.198;2023-07-16T06:32:12;11.98;;;4.85;;
38853;SDS011;24606;51.992;4.198;2023-07-16T06:37:14;8.13;;;3.80;;
38853;SDS011;24606;51.992;4.198;2023-07-16T06:42:15;12.50;;;5.57;;
38853;SDS011;24606;51.992;4.198;2023-07-16T06:47:19;15.85;;;4.97;;
38853;SDS011;24606;51.992;4.198;2023-07-16T06:52:21;7.65;;;3.75;;
38853;SDS011;24606;51.992;4.198;2023-07-16T06:57:24;15.35;;;5.15;;
38853;SDS011;24606;51.992;4.198;2023-07-16T07:02:28;12.02;;;4.65;;
38853;SDS011;24606;51.992;4.198;2023-07-16T07:07:30;12.10;;;5.40;;
38853;SDS011;24606;51.992;4.198;2023-07-16T07:12:32;16.50;;;6.25;;
38853;SDS011;24606;51.992;4.198;2023-07-16T07:17:38;14.45;;;5.22;;
38853;SDS011;24606;51.992;4.198;2023-07-16T07:22:42;10.23;;;4.57;;
38853;SDS011;24606;51.992;4.198;2023-07-16T07:27:44;18.23;;;6.18;;
38853;SDS011;24606;51.992;4.198;2023-07-16T07:32:48;10.65;;;4.30;;
38853;SDS011;24606;51.992;4.198;2023-07-16T07:37:50;13.60;;;4.75;;
38853;SDS011;24606;51.992;4.198;2023-07-16T07:42:51;20.77;;;5.55;;
38853;SDS011;24606;51.992;4.198;2023-07-16T07:47:55;11.50;;;3.83;;
38853;SDS011;24606;51.992;4.198;2023-07-16T07:52:57;13.57;;;4.45;;
38853;SDS011;24606;51.992;4.198;2023-07-16T07:57:59;9.35;;;3.72;;
38853;SDS011;24606;51.992;4.198;2023-07-16T08:03:02;12.55;;;4.22;;
38853;SDS011;24606;51.992;4.198;2023-07-16T08:08:04;7.82;;;3.80;;
38853;SDS011;24606;51.992;4.198;2023-07-16T08:13:05;23.10;;;5.40;;
38853;SDS011;24606;51.992;4.198;2023-07-16T08:18:09;11.40;;;3.72;;
38853;SDS011;24606;51.992;4.198;2023-07-16T08:23:11;8.60;;;4.20;;
38853;SDS011;24606;51.992;4.198;2023-07-16T08:28:13;18.83;;;4.13;;
38853;SDS011;24606;51.992;4.198;2023-07-16T08:33:17;11.20;;;4.30;;
38853;SDS011;24606;51.992;4.198;2023-07-16T08:38:19;6.63;;;3.00;;
38853;SDS011;24606;51.992;4.198;2023-07-16T08:43:20;13.05;;;4.32;;
38853;SDS011;24606;51.992;4.198;2023-07-16T08:48:24;13.05;;;3.55;;
38853;SDS011;24606;51.992;4.198;2023-07-16T08:53:28;10.63;;;3.85;;
38853;SDS011;24606;51.992;4.198;2023-07-16T08:58:31;11.63;;;3.75;;
38853;SDS011;24606;51.992;4.198;2023-07-16T09:03:34;20.15;;;4.93;;
38853;SDS011;24606;51.992;4.198;2023-07-16T09:08:36;14.15;;;4.60;;
38853;SDS011;24606;51.992;4.198;2023-07-16T09:13:43;11.55;;;3.95;;
38853;SDS011;24606;51.992;4.198;2023-07-16T09:18:46;18.85;;;4.55;;
38853;SDS011;24606;51.992;4.198;2023-07-16T09:23:48;9.70;;;3.55;;
38853;SDS011;24606;51.992;4.198;2023-07-16T09:28:51;10.90;;;3.55;;
38853;SDS011;24606;51.992;4.198;2023-07-16T09:33:56;6.25;;;2.58;;
38853;SDS011;24606;51.992;4.198;2023-07-16T09:38:58;16.80;;;4.10;;
38853;SDS011;24606;51.992;4.198;2023-07-16T09:44:01;14.68;;;4.00;;
38853;SDS011;24606;51.992;4.198;2023-07-16T09:49:04;6.82;;;2.63;;
38853;SDS011;24606;51.992;4.198;2023-07-16T09:54:06;13.95;;;2.90;;
38853;SDS011;24606;51.992;4.198;2023-07-16T10:04:14;7.13;;;2.50;;
38853;SDS011;24606;51.992;4.198;2023-07-16T10:09:31;8.75;;;2.35;;
38853;SDS011;24606;51.992;4.198;2023-07-16T10:14:38;13.23;;;3.28;;
38853;SDS011;24606;51.992;4.198;2023-07-16T10:19:51;7.88;;;2.63;;
38853;SDS011;24606;51.992;4.198;2023-07-16T10:24:57;15.45;;;2.67;;
38853;SDS011;24606;51.992;4.198;2023-07-16T10:29:59;7.05;;;2.08;;
38853;SDS011;24606;51.992;4.198;2023-07-16T10:35:05;9.40;;;2.95;;
38853;SDS011;24606;51.992;4.198;2023-07-16T10:40:09;9.10;;;2.05;;
38853;SDS011;24606;51.992;4.198;2023-07-16T10:45:13;15.35;;;3.53;;
38853;SDS011;24606;51.992;4.198;2023-07-16T10:50:16;15.32;;;2.58;;
38853;SDS011;24606;51.992;4.198;2023-07-16T10:55:22;9.35;;;1.98;;
38853;SDS011;24606;51.992;4.198;2023-07-16T11:00:24;14.93;;;2.97;;
38853;SDS011;24606;51.992;4.198;2023-07-16T11:05:28;7.72;;;1.92;;
38853;SDS011;24606;51.992;4.198;2023-07-16T11:10:30;9.65;;;2.15;;
38853;SDS011;24606;51.992;4.198;2023-07-16T11:15:32;10.05;;;2.40;;
38853;SDS011;24606;51.992;4.198;2023-07-16T11:20:36;11.57;;;1.85;;
38853;SDS011;24606;51.992;4.198;2023-07-16T11:25:37;13.85;;;1.95;;
38853;SDS011;24606;51.992;4.198;2023-07-16T11:30:39;11.73;;;1.45;;
38853;SDS011;24606;51.992;4.198;2023-07-16T11:35:43;8.65;;;2.25;;
38853;SDS011;24606;51.992;4.198;2023-07-16T11:40:44;12.95;;;2.08;;
38853;SDS011;24606;51.992;4.198;2023-07-16T11:45:47;16.10;;;3.28;;
38853;SDS011;24606;51.992;4.198;2023-07-16T11:50:51;12.20;;;1.85;;
38853;SDS011;24606;51.992;4.198;2023-07-16T11:55:53;11.75;;;2.72;;
38853;SDS011;24606;51.992;4.198;2023-07-16T12:00:55;7.28;;;1.85;;
38853;SDS011;24606;51.992;4.198;2023-07-16T12:05:58;14.65;;;2.40;;
38853;SDS011;24606;51.992;4.198;2023-07-16T12:11:00;16.73;;;2.95;;
38853;SDS011;24606;51.992;4.198;2023-07-16T12:16:02;17.75;;;2.47;;
38853;SDS011;24606;51.992;4.198;2023-07-16T12:21:05;16.50;;;2.42;;
38853;SDS011;24606;51.992;4.198;2023-07-16T12:26:07;21.70;;;2.50;;
38853;SDS011;24606;51.992;4.198;2023-07-16T12:31:09;23.60;;;2.65;;
38853;SDS011;24606;51.992;4.198;2023-07-16T12:36:12;7.28;;;1.33;;
38853;SDS011;24606;51.992;4.198;2023-07-16T12:41:14;22.67;;;3.22;;
38853;SDS011;24606;51.992;4.198;2023-07-16T12:46:16;18.08;;;3.28;;
38853;SDS011;24606;51.992;4.198;2023-07-16T12:51:19;10.38;;;2.25;;
38853;SDS011;24606;51.992;4.198;2023-07-16T12:56:21;11.15;;;2.10;;
38853;SDS011;24606;51.992;4.198;2023-07-16T13:01:23;15.48;;;2.92;;
38853;SDS011;24606;51.992;4.198;2023-07-16T13:06:27;20.45;;;2.80;;
38853;SDS011;24606;51.992;4.198;2023-07-16T13:11:28;16.67;;;2.40;;
38853;SDS011;24606;51.992;4.198;2023-07-16T13:16:31;18.70;;;2.88;;
38853;SDS011;24606;51.992;4.198;2023-07-16T13:21:34;16.90;;;2.78;;
38853;SDS011;24606;51.992;4.198;2023-07-16T13:26:36;17.95;;;2.92;;
38853;SDS011;24606;51.992;4.198;2023-07-16T13:36:41;9.17;;;1.93;;
38853;SDS011;24606;51.992;4.198;2023-07-16T13:41:43;11.40;;;2.40;;
38853;SDS011;24606;51.992;4.198;2023-07-16T13:46:45;19.83;;;3.85;;
38853;SDS011;24606;51.992;4.198;2023-07-16T13:56:49;14.25;;;2.00;;
38853;SDS011;24606;51.992;4.198;2023-07-16T14:01:58;20.60;;;2.33;;
38853;SDS011;24606;51.992;4.198;2023-07-16T14:07:02;18.63;;;3.05;;
38853;SDS011;24606;51.992;4.198;2023-07-16T14:12:05;9.00;;;1.77;;
38853;SDS011;24606;51.992;4.198;2023-07-16T14:17:07;13.60;;;2.53;;
38853;SDS011;24606;51.992;4.198;2023-07-16T14:22:10;15.90;;;2.70;;
38853;SDS011;24606;51.992;4.198;2023-07-16T14:27:13;22.00;;;3.88;;
38853;SDS011;24606;51.992;4.198;2023-07-16T14:32:15;15.73;;;2.63;;
38853;SDS011;24606;51.992;4.198;2023-07-16T14:42:20;24.90;;;3.35;;
38853;SDS011;24606;51.992;4.198;2023-07-16T14:47:22;10.98;;;2.03;;
38853;SDS011;24606;51.992;4.198;2023-07-16T14:57:26;19.95;;;3.67;;
38853;SDS011;24606;51.992;4.198;2023-07-16T15:02:28;12.75;;;2.33;;
38853;SDS011;24606;51.992;4.198;2023-07-16T15:12:34;15.00;;;2.40;;
38853;SDS011;24606;51.992;4.198;2023-07-16T15:22:39;11.90;;;2.30;;
38853;SDS011;24606;51.992;4.198;2023-07-16T15:27:41;5.05;;;1.73;;
38853;SDS011;24606;51.992;4.198;2023-07-16T15:32:43;14.02;;;2.00;;
38853;SDS011;24606;51.992;4.198;2023-07-16T15:37:46;9.25;;;1.55;;
38853;SDS011;24606;51.992;4.198;2023-07-16T15:42:48;6.22;;;1.63;;
38853;SDS011;24606;51.992;4.198;2023-07-16T15:47:52;6.63;;;1.60;;
38853;SDS011;24606;51.992;4.198;2023-07-16T15:52:58;11.88;;;2.08;;
38853;SDS011;24606;51.992;4.198;2023-07-16T15:58:00;5.88;;;1.65;;
38853;SDS011;24606;51.992;4.198;2023-07-16T16:03:03;8.95;;;1.95;;
38853;SDS011;24606;51.992;4.198;2023-07-16T16:08:13;8.15;;;1.42;;
38853;SDS011;24606;51.992;4.198;2023-07-16T16:13:16;11.85;;;1.90;;
38853;SDS011;24606;51.992;4.198;2023-07-16T16:18:18;14.75;;;2.58;;
38853;SDS011;24606;51.992;4.198;2023-07-16T16:23:22;7.90;;;2.00;;
38853;SDS011;24606;51.992;4.198;2023-07-16T16:28:24;13.90;;;2.20;;
38853;SDS011;24606;51.992;4.198;2023-07-16T16:38:28;12.93;;;2.25;;
38853;SDS011;24606;51.992;4.198;2023-07-16T16:43:30;13.75;;;1.48;;
38853;SDS011;24606;51.992;4.198;2023-07-16T16:53:37;12.02;;;2.42;;
38853;SDS011;24606;51.992;4.198;2023-07-16T16:58:40;12.18;;;2.08;;
38853;SDS011;24606;51.992;4.198;2023-07-16T17:08:45;9.38;;;2.05;;
38853;SDS011;24606;51.992;4.198;2023-07-16T17:13:47;11.93;;;2.30;;
38853;SDS011;24606;51.992;4.198;2023-07-16T17:23:52;5.63;;;1.53;;
38853;SDS011;24606;51.992;4.198;2023-07-16T17:28:54;4.57;;;1.30;;
38853;SDS011;24606;51.992;4.198;2023-07-16T17:38:59;12.70;;;2.00;;
38853;SDS011;24606;51.992;4.198;2023-07-16T17:44:01;11.13;;;2.17;;
38853;SDS011;24606;51.992;4.198;2023-07-16T17:49:03;13.55;;;2.22;;
38853;SDS011;24606;51.992;4.198;2023-07-16T17:59:08;9.52;;;1.77;;
38853;SDS011;24606;51.992;4.198;2023-07-16T18:09:14;9.40;;;2.20;;
38853;SDS011;24606;51.992;4.198;2023-07-16T18:14:15;12.23;;;1.90;;
38853;SDS011;24606;51.992;4.198;2023-07-16T18:19:17;19.40;;;2.47;;
38853;SDS011;24606;51.992;4.198;2023-07-16T18:29:22;14.13;;;1.92;;
38853;SDS011;24606;51.992;4.198;2023-07-16T18:34:25;12.18;;;2.03;;
38853;SDS011;24606;51.992;4.198;2023-07-16T18:39:28;12.70;;;2.45;;
38853;SDS011;24606;51.992;4.198;2023-07-16T18:44:30;11.95;;;2.17;;
38853;SDS011;24606;51.992;4.198;2023-07-16T18:49:32;20.67;;;3.60;;
38853;SDS011;24606;51.992;4.198;2023-07-16T18:54:36;9.07;;;1.73;;
38853;SDS011;24606;51.992;4.198;2023-07-16T18:59:39;14.52;;;2.20;;
38853;SDS011;24606;51.992;4.198;2023-07-16T19:04:41;15.35;;;2.70;;
38853;SDS011;24606;51.992;4.198;2023-07-16T19:09:44;9.88;;;1.95;;
38853;SDS011;24606;51.992;4.198;2023-07-16T19:14:46;17.42;;;2.30;;
38853;SDS011;24606;51.992;4.198;2023-07-16T19:19:48;3.53;;;1.35;;
38853;SDS011;24606;51.992;4.198;2023-07-16T19:24:51;14.55;;;2.30;;
38853;SDS011;24606;51.992;4.198;2023-07-16T19:29:54;12.32;;;2.15;;
38853;SDS011;24606;51.992;4.198;2023-07-16T19:39:59;14.80;;;4.00;;
38853;SDS011;24606;51.992;4.198;2023-07-16T19:45:03;14.43;;;1.92;;
38853;SDS011;24606;51.992;4.198;2023-07-16T19:50:06;15.02;;;2.97;;
38853;SDS011;24606;51.992;4.198;2023-07-16T19:55:10;14.68;;;2.13;;
38853;SDS011;24606;51.992;4.198;2023-07-16T20:00:12;14.57;;;2.28;;
38853;SDS011;24606;51.992;4.198;2023-07-16T20:05:16;10.95;;;2.28;;
38853;SDS011;24606;51.992;4.198;2023-07-16T20:10:19;16.42;;;3.08;;
38853;SDS011;24606;51.992;4.198;2023-07-16T20:15:21;14.63;;;2.40;;
38853;SDS011;24606;51.992;4.198;2023-07-16T20:20:24;7.30;;;1.55;;
38853;SDS011;24606;51.992;4.198;2023-07-16T20:25:27;10.40;;;1.65;;
38853;SDS011;24606;51.992;4.198;2023-07-16T20:30:29;12.80;;;2.50;;
38853;SDS011;24606;51.992;4.198;2023-07-16T20:35:31;8.75;;;1.63;;
38853;SDS011;24606;51.992;4.198;2023-07-16T20:40:34;9.50;;;2.15;;
38853;SDS011;24606;51.992;4.198;2023-07-16T20:45:37;7.70;;;1.92;;
38853;SDS011;24606;51.992;4.198;2023-07-16T20:50:45;5.38;;;1.70;;
38853;SDS011;24606;51.992;4.198;2023-07-16T21:00:50;5.93;;;1.85;;
38853;SDS011;24606;51.992;4.198;2023-07-16T21:05:52;11.45;;;2.58;;
38853;SDS011;24606;51.992;4.198;2023-07-16T21:10:55;5.25;;;1.88;;
38853;SDS011;24606;51.992;4.198;2023-07-16T21:15:57;9.48;;;1.83;;
38853;SDS011;24606;51.992;4.198;2023-07-16T21:20:59;12.48;;;1.83;;
38853;SDS011;24606;51.992;4.198;2023-07-16T21:26:02;13.48;;;3.00;;
38853;SDS011;24606;51.992;4.198;2023-07-16T21:31:04;14.07;;;1.85;;
38853;SDS011;24606;51.992;4.198;2023-07-16T21:36:06;8.25;;;2.42;;
38853;SDS011;24606;51.992;4.198;2023-07-16T21:41:10;7.72;;;2.00;;
38853;SDS011;24606;51.992;4.198;2023-07-16T21:46:12;6.60;;;1.83;;
38853;SDS011;24606;51.992;4.198;2023-07-16T21:51:15;11.75;;;1.77;;
38853;SDS011;24606;51.992;4.198;2023-07-16T21:56:19;11.30;;;1.67;;
38853;SDS011;24606;51.992;4.198;2023-07-16T22:01:21;10.05;;;2.22;;
38853;SDS011;24606;51.992;4.198;2023-07-16T22:06:23;8.05;;;1.60;;
38853;SDS011;24606;51.992;4.198;2023-07-16T22:11:27;5.32;;;1.67;;
38853;SDS011;24606;51.992;4.198;2023-07-16T22:16:29;5.88;;;1.40;;
38853;SDS011;24606;51.992;4.198;2023-07-16T22:26:34;2.93;;;1.10;;
38853;SDS011;24606;51.992;4.198;2023-07-16T22:31:36;10.35;;;2.00;;
38853;SDS011;24606;51.992;4.198;2023-07-16T22:41:41;4.67;;;1.20;;
38853;SDS011;24606;51.992;4.198;2023-07-16T22:46:43;5.20;;;1.85;;
38853;SDS011;24606;51.992;4.198;2023-07-16T22:56:48;9.90;;;1.80;;
38853;SDS011;24606;51.992;4.198;2023-07-16T23:01:50;14.13;;;2.25;;
38853;SDS011;24606;51.992;4.198;2023-07-16T23:11:56;5.75;;;1.83;;
38853;SDS011;24606;51.992;4.198;2023-07-16T23:16:58;6.85;;;1.77;;
38853;SDS011;24606;51.992;4.198;2023-07-16T23:21:59;8.35;;;2.40;;
38853;SDS011;24606;51.992;4.198;2023-07-16T23:27:05;8.95;;;1.63;;
38853;SDS011;24606;51.992;4.198;2023-07-16T23:32:07;5.30;;;1.38;;
38853;SDS011;24606;51.992;4.198;2023-07-16T23:37:09;9.48;;;2.15;;
38853;SDS011;24606;51.992;4.198;2023-07-16T23:42:12;8.88;;;1.63;;
38853;SDS011;24606;51.992;4.198;2023-07-16T23:47:14;12.38;;;2.05;;
38853;SDS011;24606;51.992;4.198;2023-07-16T23:52:16;10.23;;;2.00;;
38853;SDS011;24606;51.992;4.198;2023-07-16T23:57:19;3.55;;;1.40;;
